Time;durP1;ratioP1;P1;durP2;ratioP2;P2;SDS_P1;SDS_P2;PMS_P1;PMS_P2;Temp;Humidity;BMP_temperature;BMP_pressure;BME280_temperature;BME280_humidity;BME280_pressure;Samples;Min_cycle;Max_cycle;Signal;HPM_P1;HPM_P2
2023/09/18 00:01:54;;;;;;;46.38;33.30;;;17.20;99.90;;;;;;5072414;28;20119;-84
2023/09/18 00:04:20;;;;;;;36.53;29.58;;;17.20;99.90;;;;;;5076179;28;20076;-84
2023/09/18 00:06:45;;;;;;;41.63;30.33;;;17.20;99.90;;;;;;5071183;28;20067;-84
2023/09/18 00:09:13;;;;;;;38.15;30.85;;;17.20;99.90;;;;;;5055354;28;20048;-83
2023/09/18 00:11:42;;;;;;;38.42;29.63;;;17.20;99.90;;;;;;5066522;28;20047;-85
2023/09/18 00:14:11;;;;;;;45.78;33.70;;;17.20;99.90;;;;;;5088286;28;20041;-84
2023/09/18 00:16:37;;;;;;;44.60;33.58;;;17.20;99.90;;;;;;5055066;28;20036;-86
2023/09/18 00:19:03;;;;;;;50.33;34.15;;;17.20;99.90;;;;;;5057912;28;20045;-84
2023/09/18 00:21:30;;;;;;;42.50;32.45;;;17.20;99.90;;;;;;5089780;28;20049;-84
2023/09/18 00:23:57;;;;;;;43.25;30.88;;;16.80;99.90;;;;;;5091559;28;20153;-84
2023/09/18 00:26:24;;;;;;;45.97;33.30;;;17.20;99.90;;;;;;5083754;28;20080;-84
2023/09/18 00:28:53;;;;;;;44.55;31.10;;;17.10;99.90;;;;;;5059364;28;20384;-85
2023/09/18 00:31:19;;;;;;;43.35;30.80;;;17.10;99.90;;;;;;5078600;28;20479;-85
2023/09/18 00:33:45;;;;;;;40.10;31.63;;;17.10;99.90;;;;;;5065084;28;20048;-85
2023/09/18 00:36:11;;;;;;;52.22;35.53;;;17.10;99.90;;;;;;5103818;28;20028;-85
2023/09/18 00:38:36;;;;;;;40.17;31.60;;;17.10;99.90;;;;;;5072355;28;20033;-85
2023/09/18 00:41:02;;;;;;;41.38;32.45;;;17.10;99.90;;;;;;5109634;28;20079;-85
2023/09/18 00:43:28;;;;;;;53.00;34.97;;;17.10;99.90;;;;;;5070561;28;20115;-84
2023/09/18 00:45:54;;;;;;;37.15;30.67;;;17.10;99.90;;;;;;5077080;28;20036;-85
2023/09/18 00:48:20;;;;;;;42.70;30.58;;;17.10;99.90;;;;;;5058444;28;20041;-86
2023/09/18 00:50:48;;;;;;;44.35;34.15;;;17.10;99.90;;;;;;5079402;28;20047;-85
2023/09/18 00:53:21;;;;;;;46.00;33.63;;;17.10;99.90;;;;;;5081403;28;20068;-84
2023/09/18 00:55:47;;;;;;;44.22;32.90;;;17.10;99.90;;;;;;5085647;28;20086;-83
2023/09/18 00:58:13;;;;;;;43.22;33.03;;;17.10;99.90;;;;;;5080414;28;20495;-85
2023/09/18 01:00:40;;;;;;;46.13;33.45;;;17.10;99.90;;;;;;5071212;28;20104;-88
2023/09/18 01:03:06;;;;;;;48.92;34.97;;;17.10;99.90;;;;;;5078027;28;20116;-87
2023/09/18 01:05:33;;;;;;;50.90;36.20;;;17.10;99.90;;;;;;5067719;28;20047;-86
2023/09/18 01:07:59;;;;;;;53.45;37.60;;;17.10;99.90;;;;;;5076307;28;20474;-88
2023/09/18 01:10:34;;;;;;;51.63;36.20;;;17.10;99.90;;;;;;5071320;28;20178;-87
2023/09/18 01:13:17;;;;;;;48.90;37.05;;;17.20;99.90;;;;;;5077411;28;20111;-85
2023/09/18 01:15:51;;;;;;;51.47;35.60;;;17.20;99.90;;;;;;5079626;28;20047;-85
2023/09/18 01:18:18;;;;;;;55.55;37.00;;;17.10;99.90;;;;;;5104386;28;20033;-87
2023/09/18 01:20:44;;;;;;;51.03;36.78;;;17.20;99.90;;;;;;5071655;28;20071;-86
2023/09/18 01:23:11;;;;;;;53.80;40.15;;;17.10;99.90;;;;;;5078969;28;20045;-86
2023/09/18 01:25:37;;;;;;;64.07;41.92;;;17.10;99.90;;;;;;5082071;28;20049;-88
2023/09/18 01:28:03;;;;;;;53.92;38.05;;;17.10;99.90;;;;;;5080961;28;20040;-87
2023/09/18 01:30:29;;;;;;;56.88;37.90;;;17.10;99.90;;;;;;5092898;28;20057;-86
2023/09/18 01:32:59;;;;;;;57.65;39.78;;;17.10;99.90;;;;;;5086882;28;20029;-87
2023/09/18 01:35:29;;;;;;;52.22;39.22;;;17.10;99.90;;;;;;5095496;28;20021;-84
2023/09/18 01:37:57;;;;;;;61.75;40.33;;;17.10;99.90;;;;;;5079119;28;20046;-85
2023/09/18 01:40:25;;;;;;;55.20;38.30;;;17.10;99.90;;;;;;5082345;28;20036;-86
2023/09/18 01:42:51;;;;;;;51.22;37.92;;;17.20;99.90;;;;;;5073988;28;20039;-85
2023/09/18 01:45:17;;;;;;;50.35;36.85;;;17.10;99.90;;;;;;5079831;28;20036;-86
2023/09/18 01:47:43;;;;;;;43.90;33.53;;;17.10;99.90;;;;;;5079342;28;20037;-85
2023/09/18 01:50:09;;;;;;;49.97;37.00;;;17.10;99.90;;;;;;5077210;28;20029;-86
2023/09/18 01:52:35;;;;;;;45.17;33.67;;;17.00;99.90;;;;;;5082973;28;20131;-85
2023/09/18 01:55:01;;;;;;;58.78;40.25;;;17.00;99.90;;;;;;5094011;28;20032;-85
2023/09/18 01:57:27;;;;;;;48.08;36.47;;;17.00;99.90;;;;;;5086115;28;20048;-85
2023/09/18 02:00:00;;;;;;;54.92;37.90;;;17.00;99.90;;;;;;5076057;28;20035;-85
2023/09/18 02:02:26;;;;;;;53.22;39.63;;;17.00;99.90;;;;;;5113407;28;20087;-85
2023/09/18 02:04:51;;;;;;;56.78;39.22;;;17.10;99.90;;;;;;5078696;28;20040;-86
2023/09/18 02:07:17;;;;;;;47.60;36.60;;;17.00;99.90;;;;;;5082411;28;20052;-85
2023/09/18 02:09:43;;;;;;;55.78;38.13;;;17.00;99.90;;;;;;5089806;28;20072;-84
2023/09/18 02:12:09;;;;;;;56.35;39.10;;;17.00;99.90;;;;;;5077457;28;20025;-84
2023/09/18 02:14:34;;;;;;;49.22;37.10;;;17.00;99.90;;;;;;5077753;28;20045;-84
2023/09/18 02:17:00;;;;;;;50.38;36.78;;;17.10;99.90;;;;;;5096080;28;20028;-85
2023/09/18 02:19:26;;;;;;;50.13;37.88;;;17.10;99.90;;;;;;5085568;28;20100;-85
2023/09/18 02:21:55;;;;;;;48.22;36.53;;;17.10;99.90;;;;;;5087676;28;20064;-85
2023/09/18 02:24:21;;;;;;;68.22;39.78;;;17.00;99.90;;;;;;5118239;28;20096;-86
2023/09/18 02:26:50;;;;;;;51.03;36.25;;;17.10;99.90;;;;;;5102905;28;20052;-85
2023/09/18 02:29:16;;;;;;;47.00;36.92;;;16.90;99.90;;;;;;5078239;28;20100;-86
2023/09/18 02:31:41;;;;;;;52.22;37.55;;;17.00;99.90;;;;;;5085289;28;20387;-84
2023/09/18 02:34:08;;;;;;;47.13;35.72;;;17.00;99.90;;;;;;5094079;28;20078;-84
2023/09/18 02:36:34;;;;;;;46.15;35.55;;;17.10;99.90;;;;;;5116732;27;20052;-85
2023/09/18 02:39:00;;;;;;;46.15;34.83;;;17.10;99.90;;;;;;5096690;28;20039;-85
2023/09/18 02:41:26;;;;;;;41.20;33.05;;;17.00;99.90;;;;;;5087252;28;20045;-85
2023/09/18 02:43:51;;;;;;;47.58;34.58;;;17.20;99.90;;;;;;5103291;28;20047;-86
2023/09/18 02:46:18;;;;;;;46.20;34.65;;;17.00;99.90;;;;;;5080586;28;20052;-85
2023/09/18 02:48:43;;;;;;;45.97;34.38;;;17.10;99.90;;;;;;5075618;28;20100;-85
2023/09/18 02:51:10;;;;;;;45.95;35.10;;;17.10;99.90;;;;;;5090921;28;20043;-87
2023/09/18 02:53:36;;;;;;;46.70;37.13;;;17.10;99.90;;;;;;5085950;28;20087;-87
2023/09/18 02:56:02;;;;;;;48.50;35.95;;;17.10;99.90;;;;;;5096920;28;20044;-87
2023/09/18 02:58:30;;;;;;;45.17;35.60;;;17.10;99.90;;;;;;5094003;28;20051;-86
2023/09/18 03:00:59;;;;;;;;;;;16.90;99.90;;;;;;5061788;28;20052;-85
2023/09/18 03:03:26;;;;;;;45.55;35.65;;;17.00;99.90;;;;;;5064734;28;19921;-85
2023/09/18 03:05:51;;;;;;;44.53;33.28;;;17.00;99.90;;;;;;5078581;28;20040;-86
2023/09/18 03:08:20;;;;;;;43.00;34.38;;;17.00;99.90;;;;;;5070648;28;20092;-87
2023/09/18 03:10:49;;;;;;;43.78;34.58;;;16.80;99.90;;;;;;5048854;28;20132;-86
2023/09/18 03:13:15;;;;;;;45.05;34.05;;;17.10;99.90;;;;;;5070862;28;20048;-85
2023/09/18 03:15:46;;;;;;;41.78;33.47;;;17.10;99.90;;;;;;5083599;28;20060;-85
2023/09/18 03:18:11;;;;;;;43.40;34.65;;;17.10;99.90;;;;;;5102557;28;20124;-84
2023/09/18 03:20:37;;;;;;;43.95;34.60;;;17.10;99.90;;;;;;5088678;28;20041;-85
2023/09/18 03:23:03;;;;;;;39.95;34.00;;;17.10;99.90;;;;;;5078260;28;20052;-84
2023/09/18 03:25:29;;;;;;;40.60;33.47;;;17.10;99.90;;;;;;5119064;28;20041;-85
2023/09/18 03:28:00;;;;;;;44.05;32.42;;;17.10;99.90;;;;;;5083940;28;20056;-84
2023/09/18 03:30:26;;;;;;;40.67;32.70;;;17.10;99.90;;;;;;5080559;28;20127;-84
2023/09/18 03:32:53;;;;;;;40.85;34.00;;;17.10;99.90;;;;;;5078083;28;20098;-85
2023/09/18 03:35:19;;;;;;;43.20;31.90;;;17.10;99.90;;;;;;5079842;28;20040;-85
2023/09/18 03:37:47;;;;;;;39.45;31.92;;;17.10;99.90;;;;;;5084618;28;20100;-83
2023/09/18 03:40:13;;;;;;;41.47;32.28;;;17.10;99.90;;;;;;5081955;28;20098;-85
2023/09/18 03:42:39;;;;;;;37.08;31.33;;;17.10;99.90;;;;;;5061908;28;20052;-85
2023/09/18 03:45:06;;;;;;;39.17;30.10;;;17.10;99.90;;;;;;5077691;28;20044;-86
2023/09/18 03:47:33;;;;;;;36.30;29.80;;;17.10;99.90;;;;;;5091032;28;20040;-84
2023/09/18 03:49:59;;;;;;;37.10;29.35;;;17.10;99.90;;;;;;5058937;28;20109;-86
2023/09/18 03:52:25;;;;;;;38.92;29.80;;;17.10;99.90;;;;;;5088343;28;20047;-85
2023/09/18 03:54:51;;;;;;;35.47;29.75;;;17.10;99.90;;;;;;5086944;28;20041;-85
2023/09/18 03:57:16;;;;;;;33.80;28.45;;;17.10;99.90;;;;;;5094883;28;20108;-84
2023/09/18 03:59:42;;;;;;;33.63;26.40;;;17.10;99.90;;;;;;5096866;28;20036;-85
2023/09/18 04:02:08;;;;;;;37.08;27.58;;;17.10;99.90;;;;;;5089180;28;20067;-84
2023/09/18 04:04:33;;;;;;;33.25;26.70;;;17.10;99.90;;;;;;5095487;28;20040;-84
2023/09/18 04:06:59;;;;;;;32.10;26.45;;;17.10;99.90;;;;;;5105053;28;20045;-85
2023/09/18 04:09:25;;;;;;;32.40;25.70;;;17.10;99.90;;;;;;5073886;28;20029;-84
2023/09/18 04:11:52;;;;;;;35.30;25.95;;;17.10;99.90;;;;;;5081143;28;20048;-85
2023/09/18 04:14:17;;;;;;;36.30;26.40;;;17.10;99.90;;;;;;5074199;28;20557;-83
2023/09/18 04:16:44;;;;;;;33.53;25.73;;;17.10;99.90;;;;;;5090189;28;20053;-84
2023/09/18 04:19:10;;;;;;;32.50;24.90;;;17.10;99.90;;;;;;5104401;28;20048;-85
2023/09/18 04:21:36;;;;;;;35.80;24.90;;;17.10;99.90;;;;;;5065266;28;20549;-85
2023/09/18 04:24:02;;;;;;;27.83;23.13;;;17.20;99.90;;;;;;5073348;28;20032;-85
2023/09/18 04:26:31;;;;;;;31.42;24.70;;;17.20;99.90;;;;;;5051200;28;20490;-85
2023/09/18 04:28:58;;;;;;;31.40;24.35;;;17.10;99.90;;;;;;5061196;28;20075;-84
2023/09/18 04:31:23;;;;;;;29.95;22.23;;;17.10;99.90;;;;;;5079947;28;20052;-83
2023/09/18 04:33:49;;;;;;;28.48;22.00;;;17.20;99.90;;;;;;5076025;28;20039;-85
2023/09/18 04:36:15;;;;;;;27.55;23.60;;;17.20;99.90;;;;;;5061703;28;20112;-85
2023/09/18 04:38:41;;;;;;;27.98;22.65;;;17.20;99.90;;;;;;5081750;28;20076;-84
2023/09/18 04:41:07;;;;;;;27.65;21.73;;;17.30;99.90;;;;;;5106326;27;20041;-86
2023/09/18 04:43:39;;;;;;;28.45;22.60;;;17.20;99.90;;;;;;5083133;28;20040;-86
2023/09/18 04:46:05;;;;;;;29.85;22.40;;;17.20;99.90;;;;;;5077936;28;20534;-85
2023/09/18 04:48:35;;;;;;;24.58;20.48;;;17.30;99.90;;;;;;5070757;28;20103;-84
2023/09/18 04:51:01;;;;;;;29.67;21.23;;;17.30;99.90;;;;;;5086125;28;20059;-83
2023/09/18 04:53:28;;;;;;;24.95;20.92;;;17.30;99.90;;;;;;5086316;28;20045;-82
2023/09/18 04:55:54;;;;;;;23.08;20.13;;;17.30;99.90;;;;;;5077991;28;20047;-84
2023/09/18 04:58:20;;;;;;;25.80;20.73;;;17.30;99.90;;;;;;5053642;28;20041;-85
2023/09/18 05:00:46;;;;;;;27.83;21.65;;;17.30;99.90;;;;;;5059319;28;20039;-84
2023/09/18 05:03:12;;;;;;;28.40;21.30;;;17.30;99.90;;;;;;5061108;28;20040;-84
2023/09/18 05:05:38;;;;;;;25.38;21.55;;;17.30;99.90;;;;;;5108778;28;20070;-84
2023/09/18 05:08:09;;;;;;;30.15;20.65;;;17.30;99.90;;;;;;5064316;28;20041;-82
2023/09/18 05:10:36;;;;;;;27.10;20.17;;;17.40;99.90;;;;;;5056676;28;20060;-84
2023/09/18 05:13:02;;;;;;;25.88;20.30;;;17.40;99.90;;;;;;5090954;28;20037;-83
2023/09/18 05:15:32;;;;;;;30.52;19.77;;;17.40;99.90;;;;;;5074353;28;20479;-84
2023/09/18 05:17:59;;;;;;;28.75;19.92;;;17.40;99.90;;;;;;5075532;28;20044;-85
2023/09/18 05:20:27;;;;;;;26.25;21.73;;;17.30;99.90;;;;;;5056182;28;20057;-83
2023/09/18 05:22:55;;;;;;;30.27;22.65;;;17.40;99.90;;;;;;5086065;28;20048;-84
2023/09/18 05:25:22;;;;;;;26.77;20.65;;;17.50;99.90;;;;;;5068175;28;20048;-83
2023/09/18 05:27:55;;;;;;;33.63;23.87;;;17.50;99.90;;;;;;5089440;28;20037;-83
2023/09/18 05:30:28;;;;;;;29.95;23.27;;;17.50;99.90;;;;;;5083027;28;20048;-82
2023/09/18 05:32:54;;;;;;;25.67;20.08;;;17.50;99.90;;;;;;5091160;28;20046;-82
2023/09/18 05:35:23;;;;;;;24.15;18.65;;;17.50;99.90;;;;;;5055014;28;20471;-83
2023/09/18 05:37:54;;;;;;;28.13;18.45;;;17.50;99.90;;;;;;5074399;28;20047;-83
2023/09/18 05:40:20;;;;;;;24.85;19.02;;;17.50;99.90;;;;;;5069806;28;20105;-82
2023/09/18 05:42:46;;;;;;;25.80;18.38;;;17.60;99.90;;;;;;5061154;28;20056;-84
2023/09/18 05:45:15;;;;;;;26.92;19.13;;;17.60;99.90;;;;;;5055778;28;20049;-82
2023/09/18 05:47:42;;;;;;;22.50;17.35;;;17.60;99.90;;;;;;5069210;28;20513;-83
2023/09/18 05:50:16;;;;;;;28.80;17.80;;;17.70;99.90;;;;;;5072040;28;20059;-87
2023/09/18 05:52:42;;;;;;;30.33;17.48;;;17.70;99.90;;;;;;5078870;28;20044;-84
2023/09/18 05:55:08;;;;;;;25.50;17.40;;;17.80;99.90;;;;;;5085642;28;20044;-84
2023/09/18 05:57:34;;;;;;;25.05;18.00;;;17.80;99.90;;;;;;5114286;28;20043;-82
2023/09/18 06:00:02;;;;;;;23.67;18.63;;;17.80;99.90;;;;;;5067911;28;20040;-86
2023/09/18 06:02:31;;;;;;;27.05;19.27;;;17.80;99.90;;;;;;5065009;28;20098;-84
2023/09/18 06:05:00;;;;;;;21.05;18.08;;;17.80;99.90;;;;;;5067497;28;20032;-82
2023/09/18 06:07:30;;;;;;;24.75;18.33;;;17.90;99.90;;;;;;5097035;28;20049;-84
2023/09/18 06:09:57;;;;;;;22.50;18.42;;;17.90;99.90;;;;;;5085915;28;20041;-83
2023/09/18 06:12:23;;;;;;;23.60;16.90;;;17.90;99.90;;;;;;5070206;28;20037;-84
2023/09/18 06:14:50;;;;;;;23.45;16.35;;;17.90;99.90;;;;;;5084902;28;20051;-83
2023/09/18 06:17:17;;;;;;;28.35;15.88;;;17.90;99.90;;;;;;5075707;28;20032;-83
2023/09/18 06:19:44;;;;;;;22.70;16.80;;;17.90;99.90;;;;;;5059345;28;20487;-83
2023/09/18 06:22:09;;;;;;;18.35;14.80;;;17.90;99.90;;;;;;5073830;28;20056;-84
2023/09/18 06:24:39;;;;;;;18.67;14.27;;;17.90;99.90;;;;;;5053692;28;20048;-84
2023/09/18 06:27:05;;;;;;;18.08;13.48;;;18.00;99.90;;;;;;5076263;28;20044;-85
2023/09/18 06:29:35;;;;;;;20.27;13.13;;;18.00;99.90;;;;;;5086315;28;20048;-84
2023/09/18 06:32:01;;;;;;;18.38;13.05;;;18.00;99.90;;;;;;5083270;28;20049;-85
2023/09/18 06:34:30;;;;;;;17.88;12.88;;;18.00;99.90;;;;;;5069715;28;20049;-85
2023/09/18 06:36:55;;;;;;;18.30;12.98;;;18.10;99.90;;;;;;5069265;28;20109;-84
2023/09/18 06:39:23;;;;;;;18.85;12.52;;;18.10;99.90;;;;;;5071291;28;20036;-84
2023/09/18 06:41:49;;;;;;;;;;;18.10;99.90;;;;;;5080113;28;20051;-85
2023/09/18 06:44:15;;;;;;;17.83;11.70;;;18.10;99.90;;;;;;5068141;28;20382;-84
2023/09/18 06:46:41;;;;;;;15.90;11.52;;;18.20;99.90;;;;;;5090556;28;20515;-84
2023/09/18 06:49:07;;;;;;;17.02;11.50;;;18.20;99.90;;;;;;5068753;28;20036;-86
2023/09/18 06:51:33;;;;;;;19.20;11.65;;;17.80;99.90;;;;;;5073533;28;20045;-84
2023/09/18 06:54:02;;;;;;;14.38;11.10;;;18.20;99.90;;;;;;5073778;28;20040;-85
2023/09/18 06:56:28;;;;;;;13.55;10.48;;;18.20;99.90;;;;;;5080547;28;20078;-83
2023/09/18 06:59:00;;;;;;;14.85;10.75;;;18.30;99.90;;;;;;5069844;28;20467;-84
2023/09/18 07:01:31;;;;;;;21.08;10.57;;;18.30;99.90;;;;;;5081611;28;20039;-83
2023/09/18 07:03:59;;;;;;;15.02;10.68;;;18.30;99.90;;;;;;5080057;28;20048;-82
2023/09/18 07:06:25;;;;;;;;;;;18.30;99.90;;;;;;5057249;28;20048;-83
2023/09/18 07:08:51;;;;;;;23.33;12.88;;;18.30;99.90;;;;;;5076850;28;19943;-82
2023/09/18 07:11:17;;;;;;;30.77;13.68;;;18.30;99.90;;;;;;5074938;28;20117;-82
2023/09/18 07:13:43;;;;;;;24.23;14.27;;;18.30;99.90;;;;;;5066074;28;20033;-84
2023/09/18 07:16:10;;;;;;;26.75;15.40;;;18.30;99.90;;;;;;5072996;28;20090;-83
2023/09/18 07:18:36;;;;;;;21.30;14.95;;;18.30;99.90;;;;;;5081322;28;20051;-84
2023/09/18 07:21:01;;;;;;;23.67;15.95;;;18.30;99.90;;;;;;5089910;28;20048;-85
2023/09/18 07:23:30;;;;;;;24.38;15.55;;;18.20;99.90;;;;;;5076949;28;20056;-86
2023/09/18 07:25:57;;;;;;;24.38;15.85;;;18.20;99.90;;;;;;5081190;28;20066;-84
2023/09/18 07:28:24;;;;;;;26.27;16.58;;;18.20;99.90;;;;;;5111511;28;20059;-86
2023/09/18 07:30:50;;;;;;;25.23;16.87;;;18.20;99.90;;;;;;5092511;28;20033;-85
2023/09/18 07:33:17;;;;;;;29.33;18.33;;;18.20;99.90;;;;;;5096810;28;20070;-84
2023/09/18 07:35:47;;;;;;;41.10;18.70;;;18.20;99.90;;;;;;5109230;28;20079;-84
2023/09/18 07:38:12;;;;;;;32.10;18.98;;;18.20;99.90;;;;;;5073182;28;20044;-83
2023/09/18 07:40:38;;;;;;;35.45;19.42;;;18.20;99.90;;;;;;5077713;28;20086;-83
2023/09/18 07:43:04;;;;;;;41.78;21.02;;;18.10;99.90;;;;;;5066371;28;20048;-84
2023/09/18 07:45:30;;;;;;;37.63;19.20;;;18.10;99.90;;;;;;5090681;28;20044;-84
2023/09/18 07:47:56;;;;;;;35.20;21.23;;;18.10;99.90;;;;;;5116061;28;20510;-86
2023/09/18 07:50:21;;;;;;;39.63;21.08;;;18.10;99.90;;;;;;5076052;28;20037;-85
2023/09/18 07:52:47;;;;;;;37.42;21.38;;;18.10;99.90;;;;;;5078019;28;20048;-83
2023/09/18 07:55:13;;;;;;;37.30;21.95;;;18.00;99.90;;;;;;5093552;28;20075;-83
2023/09/18 07:57:39;;;;;;;30.75;21.02;;;18.10;99.90;;;;;;5087225;28;20052;-85
2023/09/18 08:00:10;;;;;;;38.22;21.90;;;18.10;99.90;;;;;;5082997;28;20028;-83
2023/09/18 08:02:37;;;;;;;45.22;24.35;;;18.10;99.90;;;;;;5086777;28;20047;-84
2023/09/18 08:05:07;;;;;;;45.50;24.08;;;17.70;99.90;;;;;;5089560;28;20037;-83
2023/09/18 08:07:35;;;;;;;43.15;24.83;;;18.10;99.90;;;;;;5088271;28;20040;-83
2023/09/18 08:10:06;;;;;;;35.72;23.58;;;18.10;99.90;;;;;;5084529;28;20052;-83
2023/09/18 08:12:32;;;;;;;39.80;23.00;;;18.10;99.90;;;;;;5059737;28;20045;-83
2023/09/18 08:14:58;;;;;;;37.20;22.92;;;18.20;99.90;;;;;;5086470;28;20041;-81
2023/09/18 08:17:25;;;;;;;57.08;24.55;;;18.20;99.90;;;;;;5109984;27;20055;-81
2023/09/18 08:19:55;;;;;;;34.40;22.48;;;18.20;99.90;;;;;;5069402;28;20135;-82
2023/09/18 08:22:21;;;;;;;44.72;23.67;;;18.20;99.90;;;;;;5090842;28;20051;-82
2023/09/18 08:24:48;;;;;;;40.17;23.42;;;18.20;99.90;;;;;;5092162;28;20056;-83
2023/09/18 08:27:16;;;;;;;49.97;23.57;;;18.20;99.90;;;;;;5092867;28;20037;-83
2023/09/18 08:29:43;;;;;;;29.30;19.83;;;18.20;99.90;;;;;;5079619;28;20303;-85
2023/09/18 08:32:09;;;;;;;39.30;22.63;;;18.20;99.90;;;;;;5088063;28;20276;-81
2023/09/18 08:34:38;;;;;;;42.22;23.08;;;18.70;99.90;;;;;;5079482;28;20049;-82
2023/09/18 08:37:05;;;;;;;37.53;21.38;;;18.20;99.90;;;;;;5085834;28;20038;-83
2023/09/18 08:39:33;;;;;;;37.93;20.80;;;18.20;99.90;;;;;;5076346;28;20037;-82
2023/09/18 08:42:04;;;;;;;33.38;19.58;;;18.20;99.90;;;;;;5076173;28;20045;-81
2023/09/18 08:44:31;;;;;;;34.85;20.63;;;18.20;99.90;;;;;;5079733;28;20044;-82
2023/09/18 08:46:59;;;;;;;31.20;18.25;;;18.30;99.90;;;;;;5069631;28;20052;-81
2023/09/18 08:49:32;;;;;;;32.08;18.92;;;18.30;99.90;;;;;;5069765;28;20109;-84
2023/09/18 08:51:59;;;;;;;26.02;17.92;;;18.30;99.90;;;;;;5086126;28;20127;-84
2023/09/18 08:54:25;;;;;;;27.88;17.73;;;18.30;99.90;;;;;;5077685;28;20082;-83
2023/09/18 08:56:54;;;;;;;33.22;19.90;;;18.30;99.90;;;;;;5082403;28;20491;-81
2023/09/18 08:59:22;;;;;;;47.75;22.42;;;18.40;99.90;;;;;;5074440;28;20053;-81
2023/09/18 09:01:48;;;;;;;40.63;21.95;;;18.30;99.90;;;;;;5103126;28;20044;-84
2023/09/18 09:04:15;;;;;;;36.67;20.67;;;18.40;99.90;;;;;;5075230;28;20072;-85
2023/09/18 09:06:41;;;;;;;35.03;20.13;;;18.40;99.90;;;;;;5099470;27;20675;-84
2023/09/18 09:09:07;;;;;;;34.88;21.02;;;18.50;99.90;;;;;;5062181;28;20072;-84
2023/09/18 09:11:34;;;;;;;40.10;20.90;;;18.50;99.90;;;;;;5061717;28;20045;-82
2023/09/18 09:14:11;;;;;;;32.83;20.27;;;18.50;99.90;;;;;;5081231;28;20074;-82
2023/09/18 09:16:40;;;;;;;34.80;20.88;;;18.50;99.90;;;;;;5088031;28;20049;-84
2023/09/18 09:19:05;;;;;;;34.85;19.65;;;18.50;99.90;;;;;;5064113;28;20071;-82
2023/09/18 09:21:43;;;;;;;37.97;20.50;;;18.50;99.90;;;;;;5109628;28;20048;-84
2023/09/18 09:24:13;;;;;;;32.50;18.92;;;18.50;99.90;;;;;;5079453;28;20052;-82
2023/09/18 09:26:40;;;;;;;36.22;19.83;;;18.50;99.90;;;;;;5080703;28;20083;-82
2023/09/18 09:29:18;;;;;;;37.45;19.90;;;18.60;99.90;;;;;;5081182;28;20498;-82
2023/09/18 09:31:45;;;;;;;28.93;18.30;;;18.60;99.90;;;;;;5071192;28;20494;-80
2023/09/18 09:34:11;;;;;;;31.10;19.52;;;18.60;99.90;;;;;;5078384;28;20656;-82
2023/09/18 09:36:52;;;;;;;28.52;19.10;;;18.70;99.90;;;;;;5074799;28;20084;-89
2023/09/18 09:39:18;;;;;;;30.52;19.85;;;18.70;99.90;;;;;;5095280;28;20056;-81
2023/09/18 09:41:47;;;;;;;31.10;20.00;;;18.80;99.90;;;;;;5065915;28;20482;-86
2023/09/18 09:44:14;;;;;;;39.67;21.67;;;18.90;99.90;;;;;;5063241;28;20044;-82
2023/09/18 09:46:51;;;;;;;34.10;21.02;;;18.90;99.90;;;;;;5078652;28;20047;-85
2023/09/18 09:49:19;;;;;;;32.03;20.30;;;19.00;99.90;;;;;;5090098;28;20191;-86
2023/09/18 09:51:46;;;;;;;30.00;20.35;;;19.00;99.90;;;;;;5074430;28;20052;-82
2023/09/18 09:54:13;;;;;;;30.13;18.95;;;19.00;99.90;;;;;;5077232;28;20434;-84
2023/09/18 09:56:45;;;;;;;29.73;19.40;;;19.10;99.90;;;;;;5082402;28;20044;-82
2023/09/18 09:59:13;;;;;;;29.05;18.60;;;19.00;99.90;;;;;;5076782;28;20036;-85
2023/09/18 10:01:44;;;;;;;25.60;18.45;;;19.00;99.90;;;;;;5082434;28;20099;-86
2023/09/18 10:04:19;;;;;;;30.83;19.17;;;19.10;99.90;;;;;;5072211;28;20045;-85
2023/09/18 10:06:57;;;;;;;27.13;19.63;;;19.10;99.90;;;;;;5092355;28;20104;-84
2023/09/18 10:09:29;;;;;;;35.70;20.50;;;19.10;99.90;;;;;;5082274;28;20051;-86
2023/09/18 10:11:58;;;;;;;26.73;20.80;;;19.10;99.90;;;;;;5049027;28;20041;-84
2023/09/18 10:14:32;;;;;;;28.70;21.35;;;19.20;99.90;;;;;;5079878;28;20492;-87
2023/09/18 10:17:17;;;;;;;34.30;22.52;;;19.30;99.90;;;;;;5076742;28;20047;-87
2023/09/18 10:20:08;;;;;;;32.53;21.00;;;19.40;99.90;;;;;;5052777;28;20049;-85
2023/09/18 10:22:46;;;;;;;32.95;21.50;;;19.50;99.90;;;;;;5073688;28;20127;-84
2023/09/18 10:25:31;;;;;;;30.15;22.00;;;19.50;99.90;;;;;;5071231;28;20127;-84
2023/09/18 10:28:07;;;;;;;34.03;24.55;;;19.60;99.90;;;;;;5073304;28;20077;-88
2023/09/18 10:30:35;;;;;;;33.75;23.90;;;19.70;99.90;;;;;;5098686;28;20051;-85
2023/09/18 10:33:07;;;;;;;32.83;23.08;;;20.00;99.90;;;;;;5083100;28;20036;-87
2023/09/18 10:35:35;;;;;;;30.08;22.40;;;20.10;99.90;;;;;;5077091;28;20079;-85
2023/09/18 10:38:05;;;;;;;31.38;22.75;;;20.10;99.90;;;;;;5086747;28;20131;-83
2023/09/18 10:40:32;;;;;;;24.73;20.30;;;20.20;99.90;;;;;;5069149;28;20109;-90
2023/09/18 10:43:02;;;;;;;25.85;19.63;;;20.40;99.90;;;;;;5078260;28;20032;-85
2023/09/18 10:45:31;;;;;;;26.10;19.35;;;20.30;99.90;;;;;;5077015;28;20082;-88
2023/09/18 10:47:57;;;;;;;26.60;20.30;;;20.30;99.90;;;;;;5103832;28;20040;-85
2023/09/18 10:50:25;;;;;;;23.73;19.73;;;20.40;99.90;;;;;;5059903;28;20036;-87
2023/09/18 10:52:54;;;;;;;23.90;16.48;;;20.60;99.90;;;;;;5080616;28;20086;-85
2023/09/18 10:55:21;;;;;;;18.88;14.85;;;20.90;99.90;;;;;;5082594;28;20119;-87
2023/09/18 10:57:52;;;;;;;16.02;13.18;;;21.10;99.90;;;;;;5080250;28;20053;-86
2023/09/18 11:00:22;;;;;;;14.48;10.80;;;21.10;99.90;;;;;;5074490;28;20049;-83
2023/09/18 11:03:18;;;;;;;15.27;10.85;;;21.30;99.90;;;;;;5081742;28;20100;-86
2023/09/18 11:05:50;;;;;;;13.13;10.48;;;21.40;99.90;;;;;;5069740;28;20041;-86
2023/09/18 11:08:43;;;;;;;14.98;11.13;;;21.30;99.90;;;;;;5085593;28;20036;-85
2023/09/18 11:11:12;;;;;;;11.82;9.95;;;21.20;99.90;;;;;;5059566;28;20068;-81
2023/09/18 11:13:40;;;;;;;12.98;9.05;;;21.20;99.90;;;;;;5064712;28;20044;-85
2023/09/18 11:16:37;;;;;;;13.95;9.73;;;21.30;99.90;;;;;;5100821;28;20092;-85
2023/09/18 11:19:10;;;;;;;13.73;7.95;;;21.70;99.90;;;;;;5078480;28;20051;-82
2023/09/18 11:21:39;;;;;;;10.30;7.78;;;22.00;99.90;;;;;;5078191;28;20052;-84
2023/09/18 11:24:23;;;;;;;13.00;7.20;;;22.40;99.90;;;;;;5081674;28;20463;-84
2023/09/18 11:26:51;;;;;;;12.40;7.07;;;22.20;99.90;;;;;;5066541;28;20044;-83
2023/09/18 11:29:21;;;;;;;;;;;22.00;99.90;;;;;;5065658;28;20053;-83
2023/09/18 11:31:56;;;;;;;8.88;6.07;;;21.90;99.90;;;;;;5080511;28;19924;-87
2023/09/18 11:34:28;;;;;;;13.77;7.95;;;21.90;99.90;;;;;;5063065;28;20041;-86
2023/09/18 11:36:54;;;;;;;9.32;5.55;;;21.80;99.90;;;;;;5060256;28;20098;-83
2023/09/18 11:39:40;;;;;;;9.80;6.57;;;22.20;99.90;;;;;;5069455;28;20033;-82
2023/09/18 11:42:19;;;;;;;11.10;5.78;;;22.60;99.90;;;;;;5066257;28;20043;-86
2023/09/18 11:44:48;;;;;;;8.27;5.00;;;23.00;99.90;;;;;;5067150;28;20080;-82
2023/09/18 11:47:22;;;;;;;7.47;4.68;;;23.30;99.90;;;;;;5066744;28;20049;-84
2023/09/18 11:49:58;;;;;;;11.15;5.68;;;23.30;99.90;;;;;;5088925;28;20045;-86
2023/09/18 11:52:31;;;;;;;7.53;5.22;;;23.20;99.90;;;;;;5089929;28;20044;-86
2023/09/18 11:54:59;;;;;;;7.45;4.65;;;22.90;99.90;;;;;;5082583;28;20045;-85
2023/09/18 11:57:26;;;;;;;11.98;5.43;;;22.60;99.90;;;;;;5104225;28;20048;-85
2023/09/18 11:59:52;;;;;;;11.35;4.75;;;22.40;99.90;;;;;;5090728;28;20520;-85
2023/09/18 12:02:34;;;;;;;5.95;4.50;;;22.20;99.90;;;;;;5083438;28;20024;-84
2023/09/18 12:05:19;;;;;;;7.65;5.10;;;22.00;99.90;;;;;;5106420;28;20118;-84
2023/09/18 12:07:47;;;;;;;6.85;5.10;;;21.90;99.90;;;;;;5110375;28;20079;-83
2023/09/18 12:10:24;;;;;;;6.03;4.60;;;21.80;99.90;;;;;;5092021;28;20036;-84
2023/09/18 12:12:51;;;;;;;8.90;4.93;;;21.70;99.90;;;;;;5076289;28;20610;-83
2023/09/18 12:15:18;;;;;;;8.25;4.40;;;21.80;99.90;;;;;;5081818;28;20324;-83
2023/09/18 12:17:43;;;;;;;9.60;4.40;;;22.10;99.90;;;;;;5071339;28;20060;-83
2023/09/18 12:20:19;;;;;;;7.00;4.15;;;22.60;99.90;;;;;;5086016;28;20369;-82
2023/09/18 12:22:50;;;;;;;8.38;4.10;;;22.80;99.90;;;;;;5052605;28;20493;-85
2023/09/18 12:25:18;;;;;;;11.13;4.53;;;23.00;99.90;;;;;;5074896;28;20037;-84
2023/09/18 12:27:44;;;;;;;7.60;4.28;;;22.90;99.90;;;;;;5078300;28;20074;-85
2023/09/18 12:30:11;;;;;;;8.43;4.10;;;22.90;99.90;;;;;;5065653;28;20128;-88
2023/09/18 12:32:39;;;;;;;11.07;4.60;;;22.80;99.90;;;;;;5087595;28;20036;-85
2023/09/18 12:35:09;;;;;;;7.80;4.00;;;22.60;99.90;;;;;;5092807;28;20037;-88
2023/09/18 12:37:39;;;;;;;10.50;4.55;;;22.50;99.90;;;;;;5077240;28;20108;-87